createdAt,value
2022-11-18T00:04:47.522Z,7.65
2022-11-18T00:09:50.501Z,7.61
2022-11-18T00:14:54.567Z,7.57
2022-11-18T00:19:57.399Z,7.53
2022-11-18T00:25:00.127Z,7.56
2022-11-18T00:30:04.951Z,7.59
2022-11-18T00:35:08.577Z,7.56
2022-11-18T00:40:12.398Z,7.53
2022-11-18T00:45:16.630Z,7.55
2022-11-18T00:50:19.479Z,7.57
2022-11-18T00:55:22.261Z,7.58
2022-11-18T01:00:26.361Z,7.58
2022-11-18T01:05:29.362Z,7.60
2022-11-18T01:10:32.245Z,7.60
2022-11-18T01:15:40.870Z,7.59
2022-11-18T01:20:44.417Z,7.63
2022-11-18T01:25:49.931Z,7.65
2022-11-18T01:30:54.070Z,7.66
2022-11-18T01:35:56.837Z,7.64
2022-11-18T01:40:59.628Z,7.62
2022-11-18T01:46:03.873Z,7.63
2022-11-18T01:51:10.605Z,7.61
2022-11-18T01:56:17.440Z,7.60
2022-11-18T02:01:21.650Z,7.55
2022-11-18T02:06:24.464Z,7.55
2022-11-18T02:11:44.680Z,7.53
2022-11-18T02:17:03.586Z,7.52
2022-11-18T02:22:20.642Z,7.50
2022-11-18T02:27:40.968Z,7.50
2022-11-18T02:32:54.468Z,7.47
2022-11-18T02:38:01.428Z,7.50
2022-11-18T02:43:09.201Z,7.51
2022-11-18T02:48:15.493Z,7.49
2022-11-18T02:53:21.428Z,7.49
2022-11-18T02:58:26.840Z,7.52
2022-11-18T03:03:32.885Z,7.48
2022-11-18T03:08:40.343Z,7.55
2022-11-18T03:13:57.037Z,7.48
2022-11-18T03:19:08.686Z,7.45
2022-11-18T03:24:17.813Z,7.46
2022-11-18T03:29:25.537Z,7.48
2022-11-18T03:34:33.360Z,7.46
2022-11-18T03:39:41.048Z,7.41
2022-11-18T03:44:52.522Z,7.37
2022-11-18T03:50:01.458Z,7.36
2022-11-18T03:55:10.801Z,7.34
2022-11-18T04:00:17.203Z,7.30
2022-11-18T04:05:21.600Z,7.22
2022-11-18T04:10:29.575Z,7.23
2022-11-18T04:15:33.328Z,7.23
2022-11-18T04:20:37.959Z,7.27
2022-11-18T04:25:40.758Z,7.28
2022-11-18T04:30:45.758Z,7.28
2022-11-18T04:35:49.922Z,7.30
2022-11-18T04:40:52.680Z,7.31
2022-11-18T04:45:55.397Z,7.32
2022-11-18T04:50:59.728Z,7.33
2022-11-18T04:56:06.433Z,7.33
2022-11-18T05:01:09.487Z,7.29
2022-11-18T05:06:13.744Z,7.30
2022-11-18T05:11:34.053Z,7.26
2022-11-18T05:16:36.789Z,7.26
2022-11-18T05:21:40.954Z,7.28
2022-11-18T05:26:44.053Z,7.27
2022-11-18T05:31:47.141Z,7.21
2022-11-18T05:36:51.459Z,7.21
2022-11-18T05:42:11.850Z,7.24
2022-11-18T05:47:15.046Z,7.28
2022-11-18T05:52:19.897Z,7.30
2022-11-18T05:57:22.806Z,7.31
2022-11-18T06:02:25.715Z,7.36
2022-11-18T06:07:34.376Z,7.39
2022-11-18T06:12:40.596Z,7.41
2022-11-18T06:17:46.711Z,7.42
2022-11-18T06:22:54.668Z,7.43
2022-11-18T06:28:00.260Z,7.45
2022-11-18T06:33:03.012Z,7.44
2022-11-18T06:38:07.278Z,7.42
2022-11-18T06:43:28.946Z,7.42
2022-11-18T06:48:33.177Z,7.42
2022-11-18T06:53:38.197Z,7.40
2022-11-18T06:58:41.304Z,7.44
2022-11-18T07:03:46.235Z,7.50
2022-11-18T07:08:51.780Z,7.53
2022-11-18T07:13:54.890Z,7.52
2022-11-18T07:18:57.619Z,7.58
2022-11-18T07:24:01.752Z,7.62
2022-11-18T07:29:10.633Z,7.67
2022-11-18T07:34:13.867Z,7.70
2022-11-18T07:39:18.489Z,7.74
2022-11-18T07:44:21.425Z,7.76
2022-11-18T07:49:24.123Z,7.84
2022-11-18T07:54:28.504Z,7.93
2022-11-18T07:59:31.611Z,7.97
2022-11-18T08:04:34.509Z,8.03
2022-11-18T08:09:38.876Z,8.09
2022-11-18T08:14:41.705Z,8.11
2022-11-18T08:19:44.631Z,8.19
2022-11-18T08:24:48.900Z,8.24
2022-11-18T08:29:51.831Z,8.30
2022-11-18T08:34:54.729Z,8.49
2022-11-18T08:39:58.796Z,8.70
2022-11-18T08:45:01.802Z,8.77
2022-11-18T08:50:05.689Z,8.96
2022-11-18T08:55:11.013Z,9.14
2022-11-18T09:00:15.423Z,9.46
2022-11-18T09:05:22.007Z,9.68
2022-11-18T09:10:26.542Z,9.75
2022-11-18T09:15:29.712Z,9.80
2022-11-18T09:20:32.420Z,9.81
2022-11-18T09:25:36.532Z,9.95
2022-11-18T09:30:39.484Z,10.01
2022-11-18T09:35:43.457Z,10.27
2022-11-18T09:40:57.643Z,10.63
2022-11-18T09:46:09.946Z,10.60
2022-11-18T09:51:13.105Z,11.08
2022-11-18T09:56:17.916Z,11.61
2022-11-18T10:01:22.058Z,11.43
2022-11-18T10:06:27.506Z,11.35
2022-11-18T10:11:41.736Z,11.09
2022-11-18T10:16:58.027Z,10.90
2022-11-18T10:22:24.002Z,11.01
2022-11-18T10:27:39.242Z,10.70
2022-11-18T10:32:55.381Z,10.67
2022-11-18T10:38:08.217Z,10.81
2022-11-18T10:43:13.842Z,10.88
2022-11-18T10:48:19.306Z,10.80
2022-11-18T10:53:41.910Z,10.78
2022-11-18T10:58:49.726Z,10.62
2022-11-18T11:04:00.233Z,10.65
2022-11-18T11:09:07.031Z,10.65
2022-11-18T11:14:23.226Z,10.68
2022-11-18T11:19:32.273Z,10.78
2022-11-18T11:24:35.062Z,11.72
2022-11-18T11:30:04.522Z,12.19
2022-11-18T11:35:16.158Z,12.18
2022-11-18T11:40:29.297Z,12.23
2022-11-18T11:45:44.648Z,11.67
2022-11-18T11:51:03.595Z,12.05
2022-11-18T11:56:26.856Z,11.75
2022-11-18T12:01:38.416Z,12.81
2022-11-18T12:06:42.731Z,13.58
2022-11-18T12:11:53.059Z,14.13
2022-11-18T12:17:06.406Z,14.36
2022-11-18T12:22:09.357Z,13.80
2022-11-18T12:27:36.118Z,12.90
2022-11-18T12:32:43.337Z,12.48
2022-11-18T12:38:01.531Z,12.37
2022-11-18T12:43:23.625Z,12.29
2022-11-18T12:48:39.704Z,12.03
2022-11-18T12:53:44.146Z,11.96
2022-11-18T12:58:50.133Z,11.78
2022-11-18T13:04:06.788Z,11.92
2022-11-18T13:09:17.404Z,11.76
2022-11-18T13:14:42.330Z,11.69
2022-11-18T13:19:57.167Z,11.59
2022-11-18T13:25:00.115Z,11.52
2022-11-18T13:30:06.176Z,11.45
2022-11-18T13:35:16.553Z,11.55
2022-11-18T13:40:21.477Z,11.55
2022-11-18T13:45:28.012Z,11.67
2022-11-18T13:50:36.745Z,11.79
2022-11-18T13:55:47.149Z,11.58
2022-11-18T14:00:57.433Z,11.31
2022-11-18T14:06:02.469Z,11.02
2022-11-18T14:11:07.170Z,10.91
2022-11-18T14:16:32.292Z,10.78
2022-11-18T14:21:38.916Z,10.68
2022-11-18T14:26:41.782Z,10.54
2022-11-18T14:31:45.051Z,10.39
2022-11-18T14:36:51.167Z,10.36
2022-11-18T14:41:54.650Z,10.30
2022-11-18T14:47:00.014Z,10.17
2022-11-18T14:52:04.768Z,10.02
2022-11-18T14:57:08.164Z,9.92
2022-11-18T15:02:15.054Z,9.81
2022-11-18T15:07:23.677Z,9.66
2022-11-18T15:12:26.896Z,9.49
2022-11-18T15:17:29.878Z,9.31
2022-11-18T15:22:34.993Z,9.12
2022-11-18T15:27:38.580Z,8.86
2022-11-18T15:32:41.394Z,8.73
2022-11-18T15:37:45.459Z,8.64
2022-11-18T15:42:52.001Z,8.48
2022-11-18T15:47:55.225Z,8.35
2022-11-18T15:52:59.362Z,8.21
2022-11-18T15:58:02.217Z,8.09
2022-11-18T16:03:04.976Z,7.97
2022-11-18T16:08:09.098Z,7.93
2022-11-18T16:13:11.851Z,7.90
2022-11-18T16:18:15.969Z,7.83
2022-11-18T16:23:20.032Z,7.78
2022-11-18T16:28:22.891Z,7.73
2022-11-18T16:33:25.741Z,7.67
2022-11-18T16:38:29.908Z,7.63
2022-11-18T16:43:32.757Z,7.58
2022-11-18T16:48:35.570Z,7.56
2022-11-18T16:53:39.731Z,7.47
2022-11-18T16:58:42.479Z,7.42
2022-11-18T17:03:45.300Z,7.40
2022-11-18T17:08:50.054Z,7.44
2022-11-18T17:13:57.973Z,7.42
2022-11-18T17:19:03.787Z,7.41
2022-11-18T17:24:13.633Z,7.39
2022-11-18T17:29:16.963Z,7.34
2022-11-18T17:34:20.281Z,7.35
2022-11-18T17:39:24.766Z,7.38
2022-11-18T17:44:28.325Z,7.35
2022-11-18T17:49:31.263Z,7.33
2022-11-18T17:54:35.529Z,7.35
2022-11-18T17:59:39.066Z,7.33
2022-11-18T18:04:41.899Z,7.29
2022-11-18T18:09:46.074Z,7.33
2022-11-18T18:14:48.838Z,7.32
2022-11-18T18:19:51.601Z,7.34
2022-11-18T18:24:55.717Z,7.38
2022-11-18T18:29:58.598Z,7.36
2022-11-18T18:35:01.542Z,7.41
2022-11-18T18:40:06.628Z,7.45
2022-11-18T18:45:28.780Z,7.49
2022-11-18T18:50:33.008Z,7.53
2022-11-18T18:55:40.568Z,7.56
2022-11-18T19:00:47.519Z,7.56
2022-11-18T19:11:29.324Z,7.47
2022-11-18T19:16:32.217Z,7.50
2022-11-18T19:21:35.463Z,7.58
2022-11-18T19:26:39.799Z,7.63
2022-11-18T19:31:42.738Z,7.66
2022-11-18T19:36:45.513Z,7.66
2022-11-18T19:41:49.698Z,7.66
2022-11-18T19:46:52.500Z,7.64
2022-11-18T19:51:55.256Z,7.61
2022-11-18T19:56:59.824Z,7.57
2022-11-18T20:02:02.540Z,7.57
2022-11-18T20:07:05.668Z,7.57
2022-11-18T20:12:10.018Z,7.59
2022-11-18T20:17:13.369Z,7.59
2022-11-18T20:22:16.178Z,7.59
2022-11-18T20:27:21.109Z,7.58
2022-11-18T20:32:23.934Z,7.58
2022-11-18T20:37:28.247Z,7.56
2022-11-18T20:42:52.780Z,7.56
2022-11-18T20:47:55.874Z,7.57
2022-11-18T20:52:58.813Z,7.58
2022-11-18T20:58:03.040Z,7.55
2022-11-18T21:03:05.935Z,7.53
2022-11-18T21:08:09.747Z,7.50
2022-11-18T21:13:31.738Z,7.47
2022-11-18T21:18:34.480Z,7.45
2022-11-18T21:23:37.310Z,7.38
2022-11-18T21:28:42.206Z,7.33
2022-11-18T21:33:44.997Z,7.34
2022-11-18T21:38:47.840Z,7.32
2022-11-18T21:44:07.953Z,7.27
2022-11-18T21:49:10.852Z,7.27
2022-11-18T21:54:15.721Z,7.27
2022-11-18T21:59:20.677Z,7.22
2022-11-18T22:04:49.934Z,7.22
2022-11-18T22:09:55.118Z,7.23
2022-11-18T22:14:59.305Z,7.23
2022-11-18T22:20:02.486Z,7.22
2022-11-18T22:25:06.691Z,7.21
2022-11-18T22:30:13.570Z,7.21
2022-11-18T22:35:16.433Z,7.22
2022-11-18T22:40:19.290Z,7.20
2022-11-18T22:45:23.456Z,7.14
2022-11-18T22:50:26.397Z,7.19
2022-11-18T22:55:29.182Z,7.09
2022-11-18T23:00:33.588Z,7.13
2022-11-18T23:05:37.046Z,7.12
2022-11-18T23:10:39.764Z,7.15
2022-11-18T23:15:43.832Z,7.05
2022-11-18T23:20:46.557Z,6.93
2022-11-18T23:25:49.288Z,6.84
2022-11-18T23:30:53.456Z,6.78
2022-11-18T23:35:56.208Z,6.66
2022-11-18T23:41:00.739Z,6.58
2022-11-18T23:46:05.669Z,6.56
2022-11-18T23:51:10.204Z,6.46
2022-11-18T23:56:15.228Z,6.36
